AirNav   TITAN Aviation Fuels
 
 501 users online  

LS51 Ochsner Medical Center Northshore Heliport
Slidell, Louisiana, USA

GOING TO SLIDELL?


FAA INFORMATION EFFECTIVE 08 SEPTEMBER 2022

Location

FAA Identifier: LS51
Lat/Long: 30-17-16.8200N 089-44-31.6700W
30-17.280333N 089-44.527833W
30.2880056,-89.7421306
(estimated)
Elevation: 14 ft. / 4 m (estimated)
Variation: 03E (1985)
Time zone: UTC -5 (UTC -6 during Standard Time)
Zip code: 70461

Heliport Operations

Heliport use: Private use, MEDICAL.
Activation date: 06/1987
Control tower: no
ARTCC: HOUSTON CENTER
FSS: DE RIDDER FLIGHT SERVICE STATION
Attendance: UNATNDD
Wind indicator: lighted
Segmented circle: no
Beacon: white-green-yellow (heliport)
Operates sunset to sunrise.

Heliport Communications

WX ASOS at ASD (5 nm NW): 132.475 (985-643-7263)
WX AWOS-3PT at MJD (13 nm N): 119.075 (601 798 4136)
WX AWOS-3PT at HSA (16 nm E): 118.375 (228-466-9320)

Nearby radio navigation aids

VOR radial/distance  VOR name  Freq  Var
PCUr177/16.4PICAYUNE VOR/DME113.9505E
HRVr025/29.6HARVEY VORTAC114.1002E
GPTr256/35.2GULFPORT VORTAC109.0002E

 
NDB name  Hdg/Dist  Freq  Var  ID
BOGALUSA170/36.235300WGVB --. ...- -...

Heliport Services

Runway Information

Helipad H1

Dimensions: 40 x 40 ft. / 12 x 12 m
Surface: concrete
Latitude: 30-17.280333N
Longitude: 089-44.527833W
Elevation: 14.0 ft.
Traffic pattern: leftleft

Heliport Ownership and Management from official FAA records

Ownership: Privately-owned
Owner: OCHSNER MEDICAL CNTR NORTHSHORE
100 MEDICAL CENTER DRIVE
SLIDELL, LA 70461
Phone 985-646-5184
Manager: JAMES KEITH FORGE
100 MEDICAL CENTER DRIVE, PLANT OPERATIONS
SLIDELL, LA 70461
Phone 985-646-5181

Additional Remarks

FOR CD CTC NEW ORLEANS APCH AT 504-471-4350.

Instrument Procedures

There are no published instrument procedures at LS51.

Some nearby airports with instrument procedures:

KASD - Slidell Airport (5 nm NW)
KMJD - Picayune Municipal Airport (13 nm N)
KHSA - Stennis International Airport (16 nm E)
KNEW - Lakefront Airport (21 nm SW)
KNBG - New Orleans Naval Air Station Joint Reserve Base - Alvin Callender Field (31 nm SW)
 
Loc | Ops | Rwys | IFR | FBO | Links
Com | Nav | Svcs | Stats | Notes
Area around LS51 (Ochsner Medical Center Northshore Heliport)
 
Road maps at: MapQuest Bing Google
 
Aerial photo
No photo
 
Sectional chart

 
Airport distance calculator
Flying to Ochsner Medical Center Northshore Heliport? Find the distance to fly.

From to LS51

Sunrise and sunset
Times for 02-Oct-2022
 Local
(UTC-5)
 Zulu
(UTC)
Morning civil twilight06:3011:30
Sunrise06:5411:54
Sunset18:4323:43
Evening civil twilight19:0700:07

Current date and time
Zulu (UTC)  02-Oct-2022 11:14:11
Local (UTC-5)  02-Oct-2022 06:14:11
 
METAR
KASD 
3nm SW 
021053Z AUTO 00000KT 10SM CLR 09/08 A3003 RMK AO2 SLP170 T00940078
KMJD 
13nm N 
021055Z AUTO 00000KT 10SM CLR 10/10 A3003 RMK AO2
KHSA 
16nm E 
020150Z 00000KT 10SM SCT040 14/11 A2997
TAF
KASD 
3nm SW 
020521Z 0206/0306 00000KT P6SM SKC FM021500 36008KT P6SM SKC FM030000 00000KT P6SM SKC
NOTAMs
Click for the latest NOTAMs
NOTAMs are issued by the DoD/FAA and will open in a separate window not controlled by AirNav.

 

 
 

Would you like to see your business listed on this page?

 If your business provides an interesting product or service to pilots, flight crews, aircraft, or users of the Ochsner Medical Center Northshore Heliport, you should consider listing it here.  To start the listing process, click on the button below
 
Add a business
 

Other Pages about Ochsner Medical Center Northshore Heliport

Update a link
 
Copyright © AirNav, LLC. All rights reserved. Privacy Policy  Contact